sensor_id;sensor_type;location;lat;lon;timestamp;temperature;humidity
52415;DHT22;38340;52.964;6.086;2024-02-26T00:02:19;3.50;99.90
52415;DHT22;38340;52.964;6.086;2024-02-26T00:04:44;3.50;99.90
52415;DHT22;38340;52.964;6.086;2024-02-26T00:07:10;3.50;99.90
52415;DHT22;38340;52.964;6.086;2024-02-26T00:09:36;3.50;99.90
52415;DHT22;38340;52.964;6.086;2024-02-26T00:12:03;3.50;99.90
52415;DHT22;38340;52.964;6.086;2024-02-26T00:14:30;3.40;99.90
52415;DHT22;38340;52.964;6.086;2024-02-26T00:16:56;3.40;99.90
52415;DHT22;38340;52.964;6.086;2024-02-26T00:19:21;3.40;99.90
52415;DHT22;38340;52.964;6.086;2024-02-26T00:21:47;3.40;99.90
52415;DHT22;38340;52.964;6.086;2024-02-26T00:24:13;3.40;99.90
52415;DHT22;38340;52.964;6.086;2024-02-26T00:26:39;3.40;99.90
52415;DHT22;38340;52.964;6.086;2024-02-26T00:29:04;3.40;99.90
52415;DHT22;38340;52.964;6.086;2024-02-26T00:31:30;3.50;99.90
52415;DHT22;38340;52.964;6.086;2024-02-26T00:33:56;3.40;99.90
52415;DHT22;38340;52.964;6.086;2024-02-26T00:36:21;3.40;99.90
52415;DHT22;38340;52.964;6.086;2024-02-26T00:38:47;3.40;99.90
52415;DHT22;38340;52.964;6.086;2024-02-26T00:41:17;3.50;99.90
52415;DHT22;38340;52.964;6.086;2024-02-26T00:43:43;3.50;99.90
52415;DHT22;38340;52.964;6.086;2024-02-26T00:46:08;3.50;99.90
52415;DHT22;38340;52.964;6.086;2024-02-26T00:48:35;3.50;99.90
52415;DHT22;38340;52.964;6.086;2024-02-26T00:51:00;3.50;99.90
52415;DHT22;38340;52.964;6.086;2024-02-26T00:53:26;3.40;99.90
52415;DHT22;38340;52.964;6.086;2024-02-26T00:55:52;3.40;99.90
52415;DHT22;38340;52.964;6.086;2024-02-26T00:58:18;3.40;99.90
52415;DHT22;38340;52.964;6.086;2024-02-26T01:00:44;3.40;99.90
52415;DHT22;38340;52.964;6.086;2024-02-26T01:03:10;3.40;99.90
52415;DHT22;38340;52.964;6.086;2024-02-26T01:05:36;3.40;99.90
52415;DHT22;38340;52.964;6.086;2024-02-26T01:08:03;3.40;99.90
52415;DHT22;38340;52.964;6.086;2024-02-26T01:10:29;3.40;99.90
52415;DHT22;38340;52.964;6.086;2024-02-26T01:12:54;3.30;99.90
52415;DHT22;38340;52.964;6.086;2024-02-26T01:15:20;3.30;99.90
52415;DHT22;38340;52.964;6.086;2024-02-26T01:17:49;3.30;99.90
52415;DHT22;38340;52.964;6.086;2024-02-26T01:20:16;3.30;99.90
52415;DHT22;38340;52.964;6.086;2024-02-26T01:22:42;3.30;99.90
52415;DHT22;38340;52.964;6.086;2024-02-26T01:25:08;3.30;99.90
52415;DHT22;38340;52.964;6.086;2024-02-26T01:27:35;3.20;99.90
52415;DHT22;38340;52.964;6.086;2024-02-26T01:30:03;3.30;99.90
52415;DHT22;38340;52.964;6.086;2024-02-26T01:32:29;3.30;99.90
52415;DHT22;38340;52.964;6.086;2024-02-26T01:34:56;3.30;99.90
52415;DHT22;38340;52.964;6.086;2024-02-26T01:37:21;3.30;99.90
52415;DHT22;38340;52.964;6.086;2024-02-26T01:39:47;3.30;99.90
52415;DHT22;38340;52.964;6.086;2024-02-26T01:42:13;3.30;99.90
52415;DHT22;38340;52.964;6.086;2024-02-26T01:44:38;3.30;99.90
52415;DHT22;38340;52.964;6.086;2024-02-26T01:47:05;3.30;99.90
52415;DHT22;38340;52.964;6.086;2024-02-26T01:49:32;3.20;99.90
52415;DHT22;38340;52.964;6.086;2024-02-26T01:51:58;3.20;99.90
52415;DHT22;38340;52.964;6.086;2024-02-26T01:54:25;3.20;99.90
52415;DHT22;38340;52.964;6.086;2024-02-26T01:56:51;3.20;99.90
52415;DHT22;38340;52.964;6.086;2024-02-26T01:59:17;3.20;99.90
52415;DHT22;38340;52.964;6.086;2024-02-26T02:01:44;3.20;99.90
52415;DHT22;38340;52.964;6.086;2024-02-26T02:04:13;3.20;99.90
52415;DHT22;38340;52.964;6.086;2024-02-26T02:06:41;3.20;99.90
52415;DHT22;38340;52.964;6.086;2024-02-26T02:09:08;3.20;99.90
52415;DHT22;38340;52.964;6.086;2024-02-26T02:11:34;3.20;99.90
52415;DHT22;38340;52.964;6.086;2024-02-26T02:14:00;3.20;99.90
52415;DHT22;38340;52.964;6.086;2024-02-26T02:16:25;3.20;99.90
52415;DHT22;38340;52.964;6.086;2024-02-26T02:18:51;3.20;99.90
52415;DHT22;38340;52.964;6.086;2024-02-26T02:21:16;3.20;99.90
52415;DHT22;38340;52.964;6.086;2024-02-26T02:23:42;3.20;99.90
52415;DHT22;38340;52.964;6.086;2024-02-26T02:26:15;3.20;99.90
52415;DHT22;38340;52.964;6.086;2024-02-26T02:28:41;3.20;99.90
52415;DHT22;38340;52.964;6.086;2024-02-26T02:31:07;3.20;99.90
52415;DHT22;38340;52.964;6.086;2024-02-26T02:33:34;3.20;99.90
52415;DHT22;38340;52.964;6.086;2024-02-26T02:36:00;3.20;99.90
52415;DHT22;38340;52.964;6.086;2024-02-26T02:38:26;3.20;99.90
52415;DHT22;38340;52.964;6.086;2024-02-26T02:40:53;3.10;99.90
52415;DHT22;38340;52.964;6.086;2024-02-26T02:43:18;3.20;99.90
52415;DHT22;38340;52.964;6.086;2024-02-26T02:45:44;3.20;99.90
52415;DHT22;38340;52.964;6.086;2024-02-26T02:48:11;3.20;99.90
52415;DHT22;38340;52.964;6.086;2024-02-26T02:50:37;3.10;99.90
52415;DHT22;38340;52.964;6.086;2024-02-26T02:53:03;3.10;99.90
52415;DHT22;38340;52.964;6.086;2024-02-26T02:55:28;3.10;99.90
52415;DHT22;38340;52.964;6.086;2024-02-26T02:57:54;3.10;99.90
52415;DHT22;38340;52.964;6.086;2024-02-26T03:00:20;3.10;99.90
52415;DHT22;38340;52.964;6.086;2024-02-26T03:02:48;3.10;99.90
52415;DHT22;38340;52.964;6.086;2024-02-26T03:05:14;3.10;99.90
52415;DHT22;38340;52.964;6.086;2024-02-26T03:07:40;3.10;99.90
52415;DHT22;38340;52.964;6.086;2024-02-26T03:10:06;3.10;99.90
52415;DHT22;38340;52.964;6.086;2024-02-26T03:12:33;3.00;99.90
52415;DHT22;38340;52.964;6.086;2024-02-26T03:14:59;3.00;99.90
52415;DHT22;38340;52.964;6.086;2024-02-26T03:17:26;3.00;99.90
52415;DHT22;38340;52.964;6.086;2024-02-26T03:19:52;3.00;99.90
52415;DHT22;38340;52.964;6.086;2024-02-26T03:22:19;3.00;99.90
52415;DHT22;38340;52.964;6.086;2024-02-26T03:24:46;3.00;99.90
52415;DHT22;38340;52.964;6.086;2024-02-26T03:27:12;3.00;99.90
52415;DHT22;38340;52.964;6.086;2024-02-26T03:29:38;3.00;99.90
52415;DHT22;38340;52.964;6.086;2024-02-26T03:32:04;3.10;99.90
52415;DHT22;38340;52.964;6.086;2024-02-26T03:34:30;3.10;99.90
52415;DHT22;38340;52.964;6.086;2024-02-26T03:36:56;3.10;99.90
52415;DHT22;38340;52.964;6.086;2024-02-26T03:39:22;3.10;99.90
52415;DHT22;38340;52.964;6.086;2024-02-26T03:41:48;3.10;99.90
52415;DHT22;38340;52.964;6.086;2024-02-26T03:44:14;3.10;99.90
52415;DHT22;38340;52.964;6.086;2024-02-26T03:46:40;3.10;99.90
52415;DHT22;38340;52.964;6.086;2024-02-26T03:49:08;3.20;99.90
52415;DHT22;38340;52.964;6.086;2024-02-26T03:51:34;3.20;99.90
52415;DHT22;38340;52.964;6.086;2024-02-26T03:54:00;3.20;99.90
52415;DHT22;38340;52.964;6.086;2024-02-26T03:56:27;3.10;99.90
52415;DHT22;38340;52.964;6.086;2024-02-26T03:58:53;3.20;99.90
52415;DHT22;38340;52.964;6.086;2024-02-26T04:01:19;3.20;99.90
52415;DHT22;38340;52.964;6.086;2024-02-26T04:03:44;3.20;99.90
52415;DHT22;38340;52.964;6.086;2024-02-26T04:06:11;3.10;99.90
52415;DHT22;38340;52.964;6.086;2024-02-26T04:08:37;3.20;99.90
52415;DHT22;38340;52.964;6.086;2024-02-26T04:11:03;3.20;99.90
52415;DHT22;38340;52.964;6.086;2024-02-26T04:13:36;3.20;99.90
52415;DHT22;38340;52.964;6.086;2024-02-26T04:16:06;3.20;99.90
52415;DHT22;38340;52.964;6.086;2024-02-26T04:18:33;3.20;99.90
52415;DHT22;38340;52.964;6.086;2024-02-26T04:20:58;3.20;99.90
52415;DHT22;38340;52.964;6.086;2024-02-26T04:23:24;3.20;99.90
52415;DHT22;38340;52.964;6.086;2024-02-26T04:25:50;3.20;99.90
52415;DHT22;38340;52.964;6.086;2024-02-26T04:28:16;3.20;99.90
52415;DHT22;38340;52.964;6.086;2024-02-26T04:30:41;3.20;99.90
52415;DHT22;38340;52.964;6.086;2024-02-26T04:33:07;3.20;99.90
52415;DHT22;38340;52.964;6.086;2024-02-26T04:35:33;3.20;99.90
52415;DHT22;38340;52.964;6.086;2024-02-26T04:38:01;3.20;99.90
52415;DHT22;38340;52.964;6.086;2024-02-26T04:40:26;3.20;99.90
52415;DHT22;38340;52.964;6.086;2024-02-26T04:42:52;3.20;99.90
52415;DHT22;38340;52.964;6.086;2024-02-26T04:45:18;3.20;99.90
52415;DHT22;38340;52.964;6.086;2024-02-26T04:47:43;3.20;99.90
52415;DHT22;38340;52.964;6.086;2024-02-26T04:50:09;3.20;99.90
52415;DHT22;38340;52.964;6.086;2024-02-26T04:52:35;3.20;99.90
52415;DHT22;38340;52.964;6.086;2024-02-26T04:55:02;3.30;99.90
52415;DHT22;38340;52.964;6.086;2024-02-26T04:57:28;3.30;99.90
52415;DHT22;38340;52.964;6.086;2024-02-26T04:59:53;3.20;99.90
52415;DHT22;38340;52.964;6.086;2024-02-26T05:02:19;3.30;99.90
52415;DHT22;38340;52.964;6.086;2024-02-26T05:04:45;3.30;99.90
52415;DHT22;38340;52.964;6.086;2024-02-26T05:07:11;3.30;99.90
52415;DHT22;38340;52.964;6.086;2024-02-26T05:09:38;3.30;99.90
52415;DHT22;38340;52.964;6.086;2024-02-26T05:12:04;3.30;99.90
52415;DHT22;38340;52.964;6.086;2024-02-26T05:14:29;3.30;99.90
52415;DHT22;38340;52.964;6.086;2024-02-26T05:16:55;3.30;99.90
52415;DHT22;38340;52.964;6.086;2024-02-26T05:19:21;3.30;99.90
52415;DHT22;38340;52.964;6.086;2024-02-26T05:21:47;3.30;99.90
52415;DHT22;38340;52.964;6.086;2024-02-26T05:24:14;3.30;99.90
52415;DHT22;38340;52.964;6.086;2024-02-26T05:26:43;3.40;99.90
52415;DHT22;38340;52.964;6.086;2024-02-26T05:29:08;3.30;99.90
52415;DHT22;38340;52.964;6.086;2024-02-26T05:31:34;3.30;99.90
52415;DHT22;38340;52.964;6.086;2024-02-26T05:34:00;3.40;99.90
52415;DHT22;38340;52.964;6.086;2024-02-26T05:36:25;3.30;99.90
52415;DHT22;38340;52.964;6.086;2024-02-26T05:38:51;3.40;99.90
52415;DHT22;38340;52.964;6.086;2024-02-26T05:41:17;3.40;99.90
52415;DHT22;38340;52.964;6.086;2024-02-26T05:43:52;3.50;99.90
52415;DHT22;38340;52.964;6.086;2024-02-26T05:46:18;3.40;99.90
52415;DHT22;38340;52.964;6.086;2024-02-26T05:48:46;3.40;99.90
52415;DHT22;38340;52.964;6.086;2024-02-26T05:51:12;3.40;99.90
52415;DHT22;38340;52.964;6.086;2024-02-26T05:53:38;3.40;99.90
52415;DHT22;38340;52.964;6.086;2024-02-26T05:56:04;3.40;99.90
52415;DHT22;38340;52.964;6.086;2024-02-26T05:58:29;3.40;99.90
52415;DHT22;38340;52.964;6.086;2024-02-26T06:00:55;3.50;99.90
52415;DHT22;38340;52.964;6.086;2024-02-26T06:03:21;3.40;99.90
52415;DHT22;38340;52.964;6.086;2024-02-26T06:05:46;3.50;99.90
52415;DHT22;38340;52.964;6.086;2024-02-26T06:08:12;3.50;99.90
52415;DHT22;38340;52.964;6.086;2024-02-26T06:10:39;3.50;99.90
52415;DHT22;38340;52.964;6.086;2024-02-26T06:13:05;3.50;99.90
52415;DHT22;38340;52.964;6.086;2024-02-26T06:15:30;3.50;99.90
52415;DHT22;38340;52.964;6.086;2024-02-26T06:17:56;3.50;99.90
52415;DHT22;38340;52.964;6.086;2024-02-26T06:20:22;3.40;99.90
52415;DHT22;38340;52.964;6.086;2024-02-26T06:22:47;3.50;99.90
52415;DHT22;38340;52.964;6.086;2024-02-26T06:25:13;3.40;99.90
52415;DHT22;38340;52.964;6.086;2024-02-26T06:27:39;3.40;99.90
52415;DHT22;38340;52.964;6.086;2024-02-26T06:30:05;3.40;99.90
52415;DHT22;38340;52.964;6.086;2024-02-26T06:32:31;3.40;99.90
52415;DHT22;38340;52.964;6.086;2024-02-26T06:34:57;3.40;99.90
52415;DHT22;38340;52.964;6.086;2024-02-26T06:37:23;3.40;99.90
52415;DHT22;38340;52.964;6.086;2024-02-26T06:39:48;3.40;99.90
52415;DHT22;38340;52.964;6.086;2024-02-26T06:42:14;3.40;99.90
52415;DHT22;38340;52.964;6.086;2024-02-26T06:44:40;3.40;99.90
52415;DHT22;38340;52.964;6.086;2024-02-26T06:47:05;3.40;99.90
52415;DHT22;38340;52.964;6.086;2024-02-26T06:49:31;3.40;99.90
52415;DHT22;38340;52.964;6.086;2024-02-26T06:51:57;3.50;99.90
52415;DHT22;38340;52.964;6.086;2024-02-26T06:54:22;3.40;99.90
52415;DHT22;38340;52.964;6.086;2024-02-26T06:56:48;3.50;99.90
52415;DHT22;38340;52.964;6.086;2024-02-26T06:59:14;3.50;99.90
52415;DHT22;38340;52.964;6.086;2024-02-26T07:01:41;3.50;99.90
52415;DHT22;38340;52.964;6.086;2024-02-26T07:04:08;3.50;99.90
52415;DHT22;38340;52.964;6.086;2024-02-26T07:06:36;3.50;99.90
52415;DHT22;38340;52.964;6.086;2024-02-26T07:09:01;3.50;99.90
52415;DHT22;38340;52.964;6.086;2024-02-26T07:11:27;3.50;99.90
52415;DHT22;38340;52.964;6.086;2024-02-26T07:13:53;3.50;99.90
52415;DHT22;38340;52.964;6.086;2024-02-26T07:16:18;3.50;99.90
52415;DHT22;38340;52.964;6.086;2024-02-26T07:18:45;3.50;99.90
52415;DHT22;38340;52.964;6.086;2024-02-26T07:21:11;3.50;99.90
52415;DHT22;38340;52.964;6.086;2024-02-26T07:23:37;3.60;99.90
52415;DHT22;38340;52.964;6.086;2024-02-26T07:26:03;3.60;99.90
52415;DHT22;38340;52.964;6.086;2024-02-26T07:28:29;3.60;99.90
52415;DHT22;38340;52.964;6.086;2024-02-26T07:30:54;3.60;99.90
52415;DHT22;38340;52.964;6.086;2024-02-26T07:33:20;3.70;99.90
52415;DHT22;38340;52.964;6.086;2024-02-26T07:35:46;3.70;99.90
52415;DHT22;38340;52.964;6.086;2024-02-26T07:38:12;3.70;99.90
52415;DHT22;38340;52.964;6.086;2024-02-26T07:40:39;3.70;99.90
52415;DHT22;38340;52.964;6.086;2024-02-26T07:43:05;3.70;99.90
52415;DHT22;38340;52.964;6.086;2024-02-26T07:45:30;3.80;99.90
52415;DHT22;38340;52.964;6.086;2024-02-26T07:47:56;3.80;99.90
52415;DHT22;38340;52.964;6.086;2024-02-26T07:50:22;3.80;99.90
52415;DHT22;38340;52.964;6.086;2024-02-26T07:52:47;3.80;99.90
52415;DHT22;38340;52.964;6.086;2024-02-26T07:55:13;3.80;99.90
52415;DHT22;38340;52.964;6.086;2024-02-26T07:57:42;3.80;99.90
52415;DHT22;38340;52.964;6.086;2024-02-26T08:00:09;3.80;99.90
52415;DHT22;38340;52.964;6.086;2024-02-26T08:02:36;3.80;99.90
52415;DHT22;38340;52.964;6.086;2024-02-26T08:05:01;3.80;99.90
52415;DHT22;38340;52.964;6.086;2024-02-26T08:07:27;3.80;99.90
52415;DHT22;38340;52.964;6.086;2024-02-26T08:09:54;3.80;99.90
52415;DHT22;38340;52.964;6.086;2024-02-26T08:12:19;3.90;99.90
52415;DHT22;38340;52.964;6.086;2024-02-26T08:14:45;3.90;99.90
52415;DHT22;38340;52.964;6.086;2024-02-26T08:17:11;3.90;99.90
52415;DHT22;38340;52.964;6.086;2024-02-26T08:19:37;3.90;99.90
52415;DHT22;38340;52.964;6.086;2024-02-26T08:22:02;3.90;99.90
52415;DHT22;38340;52.964;6.086;2024-02-26T08:24:28;3.90;99.90
52415;DHT22;38340;52.964;6.086;2024-02-26T08:26:54;3.90;99.90
52415;DHT22;38340;52.964;6.086;2024-02-26T08:29:20;4.00;99.90
52415;DHT22;38340;52.964;6.086;2024-02-26T08:31:46;4.00;99.90
52415;DHT22;38340;52.964;6.086;2024-02-26T08:34:11;4.00;99.90
52415;DHT22;38340;52.964;6.086;2024-02-26T08:36:37;4.00;99.90
52415;DHT22;38340;52.964;6.086;2024-02-26T08:39:03;4.00;99.90
52415;DHT22;38340;52.964;6.086;2024-02-26T08:41:29;4.10;99.90
52415;DHT22;38340;52.964;6.086;2024-02-26T08:43:55;4.10;99.90
52415;DHT22;38340;52.964;6.086;2024-02-26T08:46:21;4.10;99.90
52415;DHT22;38340;52.964;6.086;2024-02-26T08:48:46;4.20;99.90
52415;DHT22;38340;52.964;6.086;2024-02-26T08:51:12;4.20;99.90
52415;DHT22;38340;52.964;6.086;2024-02-26T08:53:38;4.20;99.90
52415;DHT22;38340;52.964;6.086;2024-02-26T08:56:04;4.30;99.90
52415;DHT22;38340;52.964;6.086;2024-02-26T08:58:30;4.30;99.90
52415;DHT22;38340;52.964;6.086;2024-02-26T09:00:56;4.30;99.90
52415;DHT22;38340;52.964;6.086;2024-02-26T09:03:22;4.30;99.90
52415;DHT22;38340;52.964;6.086;2024-02-26T09:05:48;4.40;99.90
52415;DHT22;38340;52.964;6.086;2024-02-26T09:08:14;4.40;99.90
52415;DHT22;38340;52.964;6.086;2024-02-26T09:10:39;4.40;99.90
52415;DHT22;38340;52.964;6.086;2024-02-26T09:13:05;4.40;99.90
52415;DHT22;38340;52.964;6.086;2024-02-26T09:15:31;4.50;99.90
52415;DHT22;38340;52.964;6.086;2024-02-26T09:17:57;4.50;99.90
52415;DHT22;38340;52.964;6.086;2024-02-26T09:20:23;4.50;99.90
52415;DHT22;38340;52.964;6.086;2024-02-26T09:22:50;4.50;99.90
52415;DHT22;38340;52.964;6.086;2024-02-26T09:25:16;4.50;99.90
52415;DHT22;38340;52.964;6.086;2024-02-26T09:27:43;4.60;99.90
52415;DHT22;38340;52.964;6.086;2024-02-26T09:30:10;4.60;99.90
52415;DHT22;38340;52.964;6.086;2024-02-26T09:32:36;4.60;99.90
52415;DHT22;38340;52.964;6.086;2024-02-26T09:35:01;4.70;99.90
52415;DHT22;38340;52.964;6.086;2024-02-26T09:37:27;4.70;99.90
52415;DHT22;38340;52.964;6.086;2024-02-26T09:39:53;4.70;99.90
52415;DHT22;38340;52.964;6.086;2024-02-26T09:42:19;4.80;99.90
52415;DHT22;38340;52.964;6.086;2024-02-26T09:44:45;4.70;99.90
52415;DHT22;38340;52.964;6.086;2024-02-26T09:47:12;4.80;99.90
52415;DHT22;38340;52.964;6.086;2024-02-26T09:49:42;4.90;99.90
52415;DHT22;38340;52.964;6.086;2024-02-26T09:52:08;4.90;99.90
52415;DHT22;38340;52.964;6.086;2024-02-26T09:54:37;4.90;99.90
52415;DHT22;38340;52.964;6.086;2024-02-26T09:57:03;5.00;99.90
52415;DHT22;38340;52.964;6.086;2024-02-26T09:59:39;5.00;99.90
52415;DHT22;38340;52.964;6.086;2024-02-26T10:02:09;5.10;99.90
52415;DHT22;38340;52.964;6.086;2024-02-26T10:04:36;5.10;99.90
52415;DHT22;38340;52.964;6.086;2024-02-26T10:07:04;5.20;99.90
52415;DHT22;38340;52.964;6.086;2024-02-26T10:09:31;5.20;99.90
52415;DHT22;38340;52.964;6.086;2024-02-26T10:11:57;5.20;99.90
52415;DHT22;38340;52.964;6.086;2024-02-26T10:14:23;5.20;99.90
52415;DHT22;38340;52.964;6.086;2024-02-26T10:16:50;5.20;99.90
52415;DHT22;38340;52.964;6.086;2024-02-26T10:19:34;5.20;99.90
52415;DHT22;38340;52.964;6.086;2024-02-26T10:22:01;5.30;99.90
52415;DHT22;38340;52.964;6.086;2024-02-26T10:24:28;5.40;99.90
52415;DHT22;38340;52.964;6.086;2024-02-26T10:26:55;5.40;99.90
52415;DHT22;38340;52.964;6.086;2024-02-26T10:29:22;5.40;99.90
52415;DHT22;38340;52.964;6.086;2024-02-26T10:31:47;5.50;99.90
52415;DHT22;38340;52.964;6.086;2024-02-26T10:34:15;5.50;99.90
52415;DHT22;38340;52.964;6.086;2024-02-26T10:36:41;5.60;99.90
52415;DHT22;38340;52.964;6.086;2024-02-26T10:39:07;5.60;99.90
52415;DHT22;38340;52.964;6.086;2024-02-26T10:41:34;5.60;99.90
52415;DHT22;38340;52.964;6.086;2024-02-26T10:44:00;5.70;99.90
52415;DHT22;38340;52.964;6.086;2024-02-26T10:46:26;5.70;99.90
52415;DHT22;38340;52.964;6.086;2024-02-26T10:48:53;5.80;99.90
52415;DHT22;38340;52.964;6.086;2024-02-26T10:51:29;5.80;99.90
52415;DHT22;38340;52.964;6.086;2024-02-26T10:53:57;5.80;99.90
52415;DHT22;38340;52.964;6.086;2024-02-26T10:56:27;5.80;99.90
52415;DHT22;38340;52.964;6.086;2024-02-26T10:58:55;5.80;99.90
52415;DHT22;38340;52.964;6.086;2024-02-26T11:01:21;5.80;99.90
52415;DHT22;38340;52.964;6.086;2024-02-26T11:03:52;5.80;99.90
52415;DHT22;38340;52.964;6.086;2024-02-26T11:06:22;5.70;99.90
52415;DHT22;38340;52.964;6.086;2024-02-26T11:08:49;5.80;99.90
52415;DHT22;38340;52.964;6.086;2024-02-26T11:11:19;5.80;99.90
52415;DHT22;38340;52.964;6.086;2024-02-26T11:13:46;5.80;99.90
52415;DHT22;38340;52.964;6.086;2024-02-26T11:16:21;5.80;99.90
52415;DHT22;38340;52.964;6.086;2024-02-26T11:18:48;5.80;99.90
52415;DHT22;38340;52.964;6.086;2024-02-26T11:21:18;5.80;99.90
52415;DHT22;38340;52.964;6.086;2024-02-26T11:23:47;5.90;99.90
52415;DHT22;38340;52.964;6.086;2024-02-26T11:26:15;5.90;99.90
52415;DHT22;38340;52.964;6.086;2024-02-26T11:28:42;6.00;99.90
52415;DHT22;38340;52.964;6.086;2024-02-26T11:31:09;6.00;99.90
52415;DHT22;38340;52.964;6.086;2024-02-26T11:33:35;6.10;99.90
52415;DHT22;38340;52.964;6.086;2024-02-26T11:36:04;6.00;99.90
52415;DHT22;38340;52.964;6.086;2024-02-26T11:38:33;6.10;99.90
52415;DHT22;38340;52.964;6.086;2024-02-26T11:40:58;6.00;99.90
52415;DHT22;38340;52.964;6.086;2024-02-26T11:43:53;6.10;99.90
52415;DHT22;38340;52.964;6.086;2024-02-26T11:46:33;6.00;99.90
52415;DHT22;38340;52.964;6.086;2024-02-26T11:51:55;6.00;99.90
52415;DHT22;38340;52.964;6.086;2024-02-26T11:57:28;6.10;99.90
52415;DHT22;38340;52.964;6.086;2024-02-26T12:00:13;6.20;99.90
52415;DHT22;38340;52.964;6.086;2024-02-26T12:05:16;6.10;99.90
52415;DHT22;38340;52.964;6.086;2024-02-26T12:07:49;6.10;99.90
52415;DHT22;38340;52.964;6.086;2024-02-26T12:10:27;6.10;99.90
52415;DHT22;38340;52.964;6.086;2024-02-26T12:13:13;6.10;99.90
52415;DHT22;38340;52.964;6.086;2024-02-26T12:15:44;6.20;99.90
52415;DHT22;38340;52.964;6.086;2024-02-26T12:18:18;6.20;99.90
52415;DHT22;38340;52.964;6.086;2024-02-26T12:20:43;6.30;99.90
52415;DHT22;38340;52.964;6.086;2024-02-26T12:23:15;6.30;99.90
52415;DHT22;38340;52.964;6.086;2024-02-26T12:25:43;6.20;99.90
52415;DHT22;38340;52.964;6.086;2024-02-26T12:28:09;6.20;99.90
52415;DHT22;38340;52.964;6.086;2024-02-26T12:30:35;6.10;99.90
52415;DHT22;38340;52.964;6.086;2024-02-26T12:33:01;6.10;99.90
52415;DHT22;38340;52.964;6.086;2024-02-26T12:35:28;6.20;99.90
52415;DHT22;38340;52.964;6.086;2024-02-26T12:37:54;6.10;99.90
52415;DHT22;38340;52.964;6.086;2024-02-26T12:40:20;6.10;99.90
52415;DHT22;38340;52.964;6.086;2024-02-26T12:42:46;6.20;99.90
52415;DHT22;38340;52.964;6.086;2024-02-26T12:45:13;6.10;99.90
52415;DHT22;38340;52.964;6.086;2024-02-26T12:47:44;6.00;99.90
52415;DHT22;38340;52.964;6.086;2024-02-26T12:50:15;6.00;99.90
52415;DHT22;38340;52.964;6.086;2024-02-26T12:52:45;6.10;99.90
52415;DHT22;38340;52.964;6.086;2024-02-26T12:55:14;6.10;99.90
52415;DHT22;38340;52.964;6.086;2024-02-26T12:57:42;6.20;99.90
52415;DHT22;38340;52.964;6.086;2024-02-26T13:00:16;6.20;99.90
52415;DHT22;38340;52.964;6.086;2024-02-26T13:02:42;6.20;99.90
52415;DHT22;38340;52.964;6.086;2024-02-26T13:05:11;6.20;99.90
52415;DHT22;38340;52.964;6.086;2024-02-26T13:07:44;6.20;99.90
52415;DHT22;38340;52.964;6.086;2024-02-26T13:10:10;6.20;99.90
52415;DHT22;38340;52.964;6.086;2024-02-26T13:12:47;6.10;99.90
52415;DHT22;38340;52.964;6.086;2024-02-26T13:15:17;6.10;99.90
52415;DHT22;38340;52.964;6.086;2024-02-26T13:17:44;6.00;99.90
52415;DHT22;38340;52.964;6.086;2024-02-26T13:20:10;6.00;99.90
52415;DHT22;38340;52.964;6.086;2024-02-26T13:22:36;6.00;99.90
52415;DHT22;38340;52.964;6.086;2024-02-26T13:25:02;5.90;99.90
52415;DHT22;38340;52.964;6.086;2024-02-26T13:27:29;5.90;99.90
52415;DHT22;38340;52.964;6.086;2024-02-26T13:30:11;5.90;99.90
52415;DHT22;38340;52.964;6.086;2024-02-26T13:32:39;5.90;99.90
52415;DHT22;38340;52.964;6.086;2024-02-26T13:35:09;5.90;99.90
52415;DHT22;38340;52.964;6.086;2024-02-26T13:37:36;5.90;99.90
52415;DHT22;38340;52.964;6.086;2024-02-26T13:40:09;5.90;99.90
52415;DHT22;38340;52.964;6.086;2024-02-26T13:42:36;5.90;99.90
52415;DHT22;38340;52.964;6.086;2024-02-26T13:45:03;5.90;99.90
52415;DHT22;38340;52.964;6.086;2024-02-26T13:47:31;5.90;99.90
52415;DHT22;38340;52.964;6.086;2024-02-26T13:49:56;5.90;99.90
52415;DHT22;38340;52.964;6.086;2024-02-26T13:52:23;5.90;99.90
52415;DHT22;38340;52.964;6.086;2024-02-26T13:54:48;5.90;99.90
52415;DHT22;38340;52.964;6.086;2024-02-26T13:57:14;5.90;99.90
52415;DHT22;38340;52.964;6.086;2024-02-26T13:59:40;5.90;99.90
52415;DHT22;38340;52.964;6.086;2024-02-26T14:02:09;5.90;99.90
52415;DHT22;38340;52.964;6.086;2024-02-26T14:04:34;5.90;99.90
52415;DHT22;38340;52.964;6.086;2024-02-26T14:07:00;5.90;99.90
52415;DHT22;38340;52.964;6.086;2024-02-26T14:09:26;5.90;99.90
52415;DHT22;38340;52.964;6.086;2024-02-26T14:11:52;5.90;99.90
52415;DHT22;38340;52.964;6.086;2024-02-26T14:14:17;5.90;99.90
52415;DHT22;38340;52.964;6.086;2024-02-26T14:16:43;5.90;99.90
52415;DHT22;38340;52.964;6.086;2024-02-26T14:19:08;5.90;99.90
52415;DHT22;38340;52.964;6.086;2024-02-26T14:21:35;5.90;99.90
52415;DHT22;38340;52.964;6.086;2024-02-26T14:24:00;5.80;99.90
52415;DHT22;38340;52.964;6.086;2024-02-26T14:26:26;5.80;99.90
52415;DHT22;38340;52.964;6.086;2024-02-26T14:28:52;5.80;99.90
52415;DHT22;38340;52.964;6.086;2024-02-26T14:31:18;5.80;99.90
52415;DHT22;38340;52.964;6.086;2024-02-26T14:33:43;5.80;99.90
52415;DHT22;38340;52.964;6.086;2024-02-26T14:36:10;5.80;99.90
52415;DHT22;38340;52.964;6.086;2024-02-26T14:38:36;5.80;99.90
52415;DHT22;38340;52.964;6.086;2024-02-26T14:41:02;5.70;99.90
52415;DHT22;38340;52.964;6.086;2024-02-26T14:43:29;5.70;99.90
52415;DHT22;38340;52.964;6.086;2024-02-26T14:45:56;5.70;99.90
52415;DHT22;38340;52.964;6.086;2024-02-26T14:48:22;5.60;99.90
52415;DHT22;38340;52.964;6.086;2024-02-26T14:50:49;5.60;99.90
52415;DHT22;38340;52.964;6.086;2024-02-26T14:53:15;5.50;99.90
52415;DHT22;38340;52.964;6.086;2024-02-26T14:55:40;5.50;99.90
52415;DHT22;38340;52.964;6.086;2024-02-26T14:58:06;5.40;99.90
52415;DHT22;38340;52.964;6.086;2024-02-26T15:00:31;5.40;99.90
52415;DHT22;38340;52.964;6.086;2024-02-26T15:02:59;5.50;99.90
52415;DHT22;38340;52.964;6.086;2024-02-26T15:05:25;5.40;99.90
52415;DHT22;38340;52.964;6.086;2024-02-26T15:07:50;5.40;99.90
52415;DHT22;38340;52.964;6.086;2024-02-26T15:10:16;5.40;99.90
52415;DHT22;38340;52.964;6.086;2024-02-26T15:12:42;5.40;99.90
52415;DHT22;38340;52.964;6.086;2024-02-26T15:15:08;5.40;99.90
52415;DHT22;38340;52.964;6.086;2024-02-26T15:17:34;5.40;99.90
52415;DHT22;38340;52.964;6.086;2024-02-26T15:20:01;5.40;99.90
52415;DHT22;38340;52.964;6.086;2024-02-26T15:22:27;5.30;99.90
52415;DHT22;38340;52.964;6.086;2024-02-26T15:24:53;5.30;99.90
52415;DHT22;38340;52.964;6.086;2024-02-26T15:27:19;5.30;99.90
52415;DHT22;38340;52.964;6.086;2024-02-26T15:29:45;5.40;99.90
52415;DHT22;38340;52.964;6.086;2024-02-26T15:32:11;5.30;99.90
52415;DHT22;38340;52.964;6.086;2024-02-26T15:34:37;5.30;99.90
52415;DHT22;38340;52.964;6.086;2024-02-26T15:37:03;5.30;99.90
52415;DHT22;38340;52.964;6.086;2024-02-26T15:39:29;5.30;99.90
52415;DHT22;38340;52.964;6.086;2024-02-26T15:41:55;5.30;99.90
52415;DHT22;38340;52.964;6.086;2024-02-26T15:44:20;5.30;99.90
52415;DHT22;38340;52.964;6.086;2024-02-26T15:46:46;5.30;99.90
52415;DHT22;38340;52.964;6.086;2024-02-26T15:49:12;5.20;99.90
52415;DHT22;38340;52.964;6.086;2024-02-26T15:51:37;5.20;99.90